Time;durP1;ratioP1;P1;durP2;ratioP2;P2;SDS_P1;SDS_P2;PMS_P1;PMS_P2;Temp;Humidity;BMP_temperature;BMP_pressure;BME280_temperature;BME280_humidity;BME280_pressure;Samples;Min_cycle;Max_cycle;Signal;HPM_P1;HPM_P2
2022/01/13 00:02:26;;;;;;;24.48;19.42;;;;;;;1.56;47.45;103189.97;5031212;28;20437;-69
2022/01/13 00:04:54;;;;;;;24.48;19.33;;;;;;;1.47;47.27;103193.53;5030094;28;20430;-69
2022/01/13 00:07:21;;;;;;;25.75;19.95;;;;;;;1.54;47.36;103192.63;5031021;28;20441;-69
2022/01/13 00:09:48;;;;;;;26.05;20.15;;;;;;;1.64;47.20;103187.34;5045946;28;21002;-69
2022/01/13 00:12:18;;;;;;;25.77;21.30;;;;;;;1.60;47.00;103189.97;5029825;28;20410;-69
2022/01/13 00:15:06;;;;;;;26.50;20.67;;;;;;;1.34;47.46;103184.03;5029691;28;20930;-69
2022/01/13 00:17:56;;;;;;;24.23;19.63;;;;;;;1.50;47.13;103190.91;5016266;28;20471;-69
2022/01/13 00:25:56;;;;;;;27.15;22.13;;;;;;;1.48;47.05;103189.16;5013441;28;20426;-69
2022/01/13 00:28:24;;;;;;;56.05;44.05;;;;;;;1.44;46.76;103190.03;5030341;28;20422;-69
2022/01/13 00:30:54;;;;;;;29.10;23.02;;;;;;;1.37;47.25;103190.06;5030487;28;20411;-69
2022/01/13 00:33:25;;;;;;;28.27;21.70;;;;;;;1.34;47.37;103191.84;4996169;28;20997;-69
2022/01/13 00:35:54;;;;;;;26.30;20.70;;;;;;;1.12;47.74;103196.28;5009422;28;20465;-70
2022/01/13 00:38:21;;;;;;;27.00;20.83;;;;;;;1.30;47.20;103196.22;5009658;28;20988;-69
2022/01/13 00:40:49;;;;;;;24.13;18.80;;;;;;;1.07;47.34;103190.19;5010227;28;20427;-69
2022/01/13 00:43:16;;;;;;;23.23;17.83;;;;;;;0.77;47.92;103181.56;5010646;28;20523;-69
2022/01/13 00:45:43;;;;;;;25.27;20.23;;;;;;;0.92;47.88;103186.78;5009976;28;20507;-69
2022/01/13 00:48:10;;;;;;;23.00;17.87;;;;;;;0.59;48.20;103188.59;5010256;28;20431;-69
2022/01/13 00:50:38;;;;;;;24.40;19.45;;;;;;;0.82;47.89;103182.44;5010527;28;20503;-68
2022/01/13 00:53:05;;;;;;;25.67;19.67;;;;;;;0.67;47.99;103192.91;5010120;28;20423;-68
2022/01/13 00:55:46;;;;;;;24.33;19.02;;;;;;;0.75;47.95;103191.16;5010314;28;20419;-68
2022/01/13 00:58:13;;;;;;;42.50;37.00;;;;;;;0.81;47.86;103196.34;5010730;28;20469;-68
2022/01/13 01:00:40;;;;;;;40.58;30.67;;;;;;;0.73;48.18;103195.50;5009840;28;21020;-69
2022/01/13 01:03:08;;;;;;;30.05;23.23;;;;;;;0.57;48.12;103197.28;5010055;28;20474;-69
2022/01/13 01:05:35;;;;;;;36.97;27.38;;;;;;;0.47;48.67;103208.59;5009489;28;20447;-68
2022/01/13 01:08:05;;;;;;;43.08;30.85;;;;;;;0.47;48.43;103199.03;5010222;28;20431;-68
2022/01/13 01:10:32;;;;;;;29.10;23.15;;;;;;;0.53;48.43;103203.38;5010465;28;20494;-68
2022/01/13 01:13:04;;;;;;;28.38;21.10;;;;;;;0.31;48.82;103198.16;5009975;28;20783;-68
2022/01/13 01:15:34;;;;;;;82.20;56.65;;;;;;;0.57;48.28;103197.28;5010087;28;20411;-69
2022/01/13 01:18:08;;;;;;;69.43;46.17;;;;;;;0.56;48.14;103195.53;5010611;28;20475;-68
2022/01/13 01:20:47;;;;;;;37.65;26.27;;;;;;;0.19;48.94;103190.34;5010164;28;25110;-68
2022/01/13 01:23:20;;;;;;;56.63;41.40;;;;;;;0.41;48.71;103191.22;5009653;28;20445;-69
2022/01/13 01:25:59;;;;;;;33.50;24.08;;;;;;;0.54;48.45;103197.28;5009731;28;20511;-69
2022/01/13 01:28:36;;;;;;;49.70;35.28;;;;;;;0.74;48.16;103192.91;5009189;28;20533;-69
2022/01/13 01:31:03;;;;;;;34.47;24.83;;;;;;;0.46;48.32;103178.16;5005169;28;20435;-72
2022/01/13 01:33:30;;;;;;;39.53;28.77;;;;;;;0.23;49.02;103173.84;5019959;28;20907;-69
2022/01/13 01:35:58;;;;;;;41.23;29.43;;;;;;;0.38;48.90;103176.41;5029401;28;20409;-69
2022/01/13 01:38:26;;;;;;;44.42;30.83;;;;;;;0.08;49.48;103182.53;5029256;28;20934;-69
2022/01/13 01:40:53;;;;;;;31.57;23.03;;;;;;;-0.11;49.98;103185.97;5029479;28;20423;-69
2022/01/13 01:43:21;;;;;;;38.03;27.25;;;;;;;-0.27;49.91;103185.94;5029479;28;20509;-68
2022/01/13 01:45:49;;;;;;;44.47;31.20;;;;;;;-0.39;50.16;103182.44;5028618;28;20919;-69
2022/01/13 01:48:20;;;;;;;35.42;25.20;;;;;;;-0.48;50.47;103191.97;5030355;28;20466;-69
2022/01/13 01:50:55;;;;;;;48.28;33.53;;;;;;;-0.37;50.21;103183.31;5032956;28;20504;-69
2022/01/13 01:53:22;;;;;;;25.37;19.07;;;;;;;-0.27;50.02;103185.94;5033145;28;25119;-69
2022/01/13 01:55:54;;;;;;;60.42;39.50;;;;;;;-0.25;50.27;103184.19;5033173;28;20459;-69
2022/01/13 01:58:21;;;;;;;38.37;27.47;;;;;;;-0.39;50.15;103191.13;5033417;28;20467;-69
2022/01/13 02:00:47;;;;;;;38.47;28.05;;;;;;;-0.17;50.07;103192.03;5033372;28;20407;-69
2022/01/13 02:03:16;;;;;;;31.23;22.60;;;;;;;0.01;49.80;103191.19;5032944;28;20410;-68
2022/01/13 02:05:43;;;;;;;48.78;34.95;;;;;;;0.05;49.98;103189.47;5033005;28;20518;-68
2022/01/13 02:08:10;;;;;;;44.58;32.85;;;;;;;-0.02;49.69;103196.38;5033039;28;20423;-68
2022/01/13 02:10:37;;;;;;;53.85;38.78;;;;;;;0.01;49.65;103191.19;5032679;28;20468;-69
2022/01/13 02:13:09;;;;;;;27.00;20.57;;;;;;;-0.18;50.12;103190.31;5032078;28;20887;-70
2022/01/13 02:15:47;;;;;;;40.78;29.23;;;;;;;-0.08;49.50;103186.84;5032072;28;20520;-70
2022/01/13 02:18:15;;;;;;;80.35;53.13;;;;;;;0.20;49.25;103186.84;5032613;28;20439;-70
2022/01/13 02:20:45;;;;;;;39.72;27.65;;;;;;;-0.13;49.72;103188.56;5032938;28;20446;-70
2022/01/13 02:23:12;;;;;;;28.75;21.42;;;;;;;-0.22;49.82;103197.25;5032360;28;20441;-70
2022/01/13 02:25:39;;;;;;;43.55;29.58;;;;;;;-0.08;49.79;103193.78;5032874;28;20502;-69
2022/01/13 02:28:06;;;;;;;44.72;30.80;;;;;;;-0.07;49.30;103185.97;5032500;28;20521;-69
2022/01/13 02:30:33;;;;;;;39.47;29.00;;;;;;;0.11;49.15;103185.13;5032499;28;20422;-70
2022/01/13 02:33:00;;;;;;;54.63;44.13;;;;;;;-0.05;49.23;103189.44;5013641;28;20505;-70
2022/01/13 02:35:35;;;;;;;40.00;30.10;;;;;;;-0.15;49.24;103192.03;5032396;28;20440;-69
2022/01/13 02:38:10;;;;;;;34.80;27.90;;;;;;;-0.06;49.21;103190.31;5031637;28;20476;-70
2022/01/13 02:40:37;;;;;;;32.45;24.33;;;;;;;0.12;48.77;103188.59;5031785;28;20424;-70
2022/01/13 02:43:04;;;;;;;31.80;25.60;;;;;;;-0.02;49.09;103192.06;5031722;28;20505;-70
2022/01/13 02:45:34;;;;;;;29.55;22.52;;;;;;;-0.09;49.32;103190.31;5031805;28;20437;-70
2022/01/13 02:48:26;;;;;;;39.20;30.58;;;;;;;-0.03;49.09;103190.31;5031390;28;20516;-69
2022/01/13 02:50:53;;;;;;;26.75;21.10;;;;;;;0.18;48.68;103188.59;5031704;28;25122;-69
2022/01/13 02:53:22;;;;;;;29.38;21.45;;;;;;;-0.19;49.55;103188.56;5032500;28;20497;-69
2022/01/13 02:55:49;;;;;;;27.10;21.27;;;;;;;-0.02;49.38;103191.19;5030804;28;20413;-69
2022/01/13 02:58:17;;;;;;;26.67;19.88;;;;;;;-0.12;49.48;103186.81;5031870;28;20414;-69
2022/01/13 03:00:45;;;;;;;32.13;24.27;;;;;;;-0.04;49.05;103192.91;5031585;28;20414;-69
2022/01/13 03:03:13;;;;;;;25.63;19.95;;;;;;;-0.34;49.73;103189.41;5032021;28;20970;-69
2022/01/13 03:05:41;;;;;;;28.33;20.40;;;;;;;-0.15;49.55;103185.09;5031907;28;20445;-69
2022/01/13 03:08:09;;;;;;;29.13;22.75;;;;;;;-0.24;49.82;103190.31;5032091;28;20433;-69
2022/01/13 03:10:37;;;;;;;26.90;20.20;;;;;;;-0.35;49.83;103186.78;5031209;28;20441;-70
2022/01/13 03:13:06;;;;;;;29.17;22.23;;;;;;;-0.32;49.87;103202.44;5014379;28;20410;-69
2022/01/13 03:15:33;;;;;;;24.35;18.95;;;;;;;-0.48;50.32;103194.56;5031909;28;20908;-70
2022/01/13 03:18:00;;;;;;;24.75;19.42;;;;;;;-0.57;50.71;103191.06;5031698;28;20543;-70
2022/01/13 03:20:27;;;;;;;59.75;46.10;;;;;;;-0.46;50.75;103184.16;5031660;28;20422;-70
2022/01/13 03:22:54;;;;;;;25.00;18.33;;;;;;;-0.56;50.80;103187.59;5031892;28;20418;-70
2022/01/13 03:25:23;;;;;;;27.00;20.42;;;;;;;-0.51;50.88;103178.91;4997636;28;20422;-70
2022/01/13 03:27:57;;;;;;;28.60;21.23;;;;;;;-0.53;50.98;103190.19;5031882;28;20490;-70
2022/01/13 03:30:24;;;;;;;25.67;19.37;;;;;;;-0.61;51.46;103192.78;5031871;28;20543;-71
2022/01/13 03:32:51;;;;;;;25.13;19.65;;;;;;;-0.58;51.41;103198.00;4996318;28;20449;-70
2022/01/13 03:35:18;;;;;;;28.40;21.00;;;;;;;-0.46;51.38;103184.16;5031399;28;20999;-70
2022/01/13 03:37:45;;;;;;;45.67;32.00;;;;;;;-0.56;51.32;103183.25;5014045;28;20496;-70
2022/01/13 03:40:13;;;;;;;27.55;22.45;;;;;;;-0.51;51.57;103183.25;5031178;28;20522;-70
2022/01/13 03:42:41;;;;;;;129.15;116.57;;;;;;;-0.53;51.48;103182.41;5031174;28;20409;-70
2022/01/13 03:45:10;;;;;;;27.27;22.25;;;;;;;-0.37;51.45;103178.97;5046496;28;21180;-70
2022/01/13 03:47:37;;;;;;;51.80;46.80;;;;;;;-0.46;51.89;103178.97;5031114;28;20918;-70
2022/01/13 03:50:05;;;;;;;28.55;24.50;;;;;;;-0.56;51.64;103190.22;5046238;28;20553;-70
2022/01/13 03:53:18;;;;;;;49.25;44.30;;;;;;;-0.42;51.91;103178.09;5030966;28;20408;-70
2022/01/13 03:56:27;;;;;;;36.30;30.55;;;;;;;-0.31;51.57;103176.38;5030337;28;25190;-71
2022/01/13 03:59:31;;;;;;;36.25;31.48;;;;;;;-0.17;51.64;103180.75;5030712;28;25113;-71
2022/01/13 04:02:09;;;;;;;32.40;26.73;;;;;;;0.10;50.95;103183.41;5030746;28;25095;-71
2022/01/13 04:04:39;;;;;;;38.55;32.95;;;;;;;0.22;50.81;103179.91;5030639;28;25124;-71
2022/01/13 04:07:17;;;;;;;30.70;23.58;;;;;;;0.36;50.38;103179.91;5030775;28;20417;-71
2022/01/13 04:10:25;;;;;;;57.35;44.75;;;;;;;0.38;50.29;103176.41;5030946;28;20474;-71
2022/01/13 04:12:52;;;;;;;41.03;31.93;;;;;;;0.64;49.88;103177.28;5016191;28;25171;-71
2022/01/13 04:15:20;;;;;;;31.52;25.05;;;;;;;0.57;50.04;103166.84;5030771;28;20446;-71
2022/01/13 04:17:49;;;;;;;80.05;71.10;;;;;;;0.60;49.91;103172.03;5030429;28;20413;-71
2022/01/13 04:20:17;;;;;;;74.28;61.35;;;;;;;0.66;49.86;103173.78;5030539;28;20474;-71
2022/01/13 04:22:45;;;;;;;60.08;50.00;;;;;;;0.58;50.17;103171.19;5046104;28;20439;-69
2022/01/13 04:25:12;;;;;;;31.95;28.13;;;;;;;0.82;49.73;103174.63;5033467;28;20436;-71
2022/01/13 04:27:43;;;;;;;62.53;55.67;;;;;;;0.95;49.18;103178.06;5016244;28;20907;-70
2022/01/13 04:32:57;;;;;;;30.30;26.90;;;;;;;0.94;49.37;103185.03;5010514;28;21015;-71
2022/01/13 04:35:24;;;;;;;35.38;31.25;;;;;;;0.96;49.07;103188.50;5012022;28;20410;-71
2022/01/13 04:37:51;;;;;;;28.40;21.38;;;;;;;0.77;49.16;103194.63;5030103;28;20493;-70
2022/01/13 04:40:19;;;;;;;33.03;26.77;;;;;;;0.89;48.86;103201.56;5029510;28;20414;-71
2022/01/13 04:42:52;;;;;;;25.90;22.23;;;;;;;0.76;49.17;103205.94;5029678;28;20441;-70
2022/01/13 04:45:21;;;;;;;26.00;21.52;;;;;;;0.85;49.13;103203.31;5030035;28;20562;-71
2022/01/13 04:47:48;;;;;;;25.98;21.42;;;;;;;0.89;49.10;103204.16;5045188;28;20503;-71
2022/01/13 04:50:17;;;;;;;24.77;19.85;;;;;;;1.07;48.55;103205.88;5030229;28;20437;-72
2022/01/13 04:52:44;;;;;;;27.65;22.70;;;;;;;1.15;49.04;103211.94;5029924;28;20406;-71
2022/01/13 04:55:13;;;;;;;26.92;20.42;;;;;;;0.98;49.18;103206.78;5030170;28;20501;-71
2022/01/13 04:57:40;;;;;;;27.23;22.13;;;;;;;0.83;49.29;103204.19;5029798;28;20480;-72
2022/01/13 05:00:09;;;;;;;25.88;21.98;;;;;;;0.87;49.04;103206.78;5029518;28;20888;-72
2022/01/13 05:02:37;;;;;;;22.13;17.77;;;;;;;0.97;48.90;103212.84;5028990;28;20422;-71
2022/01/13 05:05:04;;;;;;;27.57;24.23;;;;;;;1.07;48.55;103213.69;5029383;28;20496;-71
2022/01/13 05:07:34;;;;;;;23.30;19.23;;;;;;;0.92;48.83;103210.25;5029998;28;20414;-71
2022/01/13 05:10:00;;;;;;;25.40;21.80;;;;;;;0.70;49.32;103209.44;5029589;28;20509;-71
2022/01/13 05:12:32;;;;;;;21.25;17.90;;;;;;;0.67;49.13;103213.78;5030273;28;20497;-71
2022/01/13 05:15:03;;;;;;;26.13;23.33;;;;;;;0.60;49.27;103211.19;5029482;28;20422;-71
2022/01/13 05:20:20;;;;;;;23.88;18.58;;;;;;;0.78;48.66;103196.38;5021106;28;20484;-71
2022/01/13 05:22:48;;;;;;;22.90;16.73;;;;;;;0.49;49.31;103199.91;5029168;28;20487;-71
2022/01/13 05:25:16;;;;;;;25.02;21.38;;;;;;;0.36;49.57;103193.81;5028854;28;20458;-71
2022/01/13 05:27:45;;;;;;;24.08;19.58;;;;;;;0.23;49.74;103192.09;5029283;28;20501;-71
2022/01/13 05:30:13;;;;;;;29.95;20.92;;;;;;;0.22;49.65;103198.16;5029131;28;20562;-72
2022/01/13 05:32:40;;;;;;;29.10;23.20;;;;;;;0.16;49.86;103198.16;5015153;28;20421;-71
2022/01/13 05:35:08;;;;;;;27.45;20.50;;;;;;;0.06;50.01;103205.13;5029091;28;20501;-71
2022/01/13 05:37:35;;;;;;;24.83;18.85;;;;;;;-0.04;50.16;103203.34;5028760;28;20496;-71
2022/01/13 05:40:04;;;;;;;27.42;21.67;;;;;;;0.05;49.71;103203.38;5027852;28;20492;-72
2022/01/13 05:42:31;;;;;;;28.70;22.60;;;;;;;-0.12;50.32;103205.94;5028863;28;20440;-71
2022/01/13 05:44:59;;;;;;;31.45;26.33;;;;;;;-0.20;50.56;103215.50;5043972;28;20424;-71
2022/01/13 05:47:26;;;;;;;113.23;70.37;;;;;;;-0.19;50.68;103227.63;5029067;28;20475;-71
2022/01/13 05:49:53;;;;;;;59.85;39.78;;;;;;;-0.18;50.64;103229.41;5028396;28;21007;-72
2022/01/13 05:52:21;;;;;;;64.60;43.60;;;;;;;-0.13;50.54;103227.66;5011073;28;20427;-71
2022/01/13 05:54:48;;;;;;;128.85;78.95;;;;;;;-0.05;50.21;103233.75;5027338;28;20511;-72
2022/01/13 05:57:16;;;;;;;62.60;45.30;;;;;;;0.03;50.29;103241.59;5043061;28;20490;-72
2022/01/13 05:59:43;;;;;;;58.13;40.20;;;;;;;0.05;50.18;103250.28;5028956;28;20413;-72
2022/01/13 06:02:10;;;;;;;102.75;84.65;;;;;;;-0.01;50.25;103253.72;5029204;28;20407;-72
2022/01/13 06:04:37;;;;;;;148.77;101.82;;;;;;;-0.13;50.61;103250.25;5029186;28;20407;-73
2022/01/13 06:07:04;;;;;;;92.60;64.13;;;;;;;-0.21;50.82;103253.69;5028831;28;20411;-72
2022/01/13 06:09:31;;;;;;;51.30;37.20;;;;;;;0.21;49.97;103255.53;5028754;28;20490;-72
2022/01/13 06:12:01;;;;;;;96.63;77.43;;;;;;;0.09;49.90;103252.03;5044027;28;20493;-71
2022/01/13 06:14:31;;;;;;;70.45;55.10;;;;;;;0.12;49.93;103256.34;5029088;28;20431;-72
2022/01/13 06:16:58;;;;;;;60.53;44.35;;;;;;;-0.06;50.20;103251.97;5029027;28;20414;-72
2022/01/13 06:19:25;;;;;;;67.22;48.85;;;;;;;0.04;49.94;103260.69;5028887;28;20435;-72
2022/01/13 06:21:52;;;;;;;74.82;57.95;;;;;;;0.03;49.95;103261.56;5029021;28;20514;-72
2022/01/13 06:24:19;;;;;;;152.63;125.17;;;;;;;0.05;49.91;103267.66;5028672;28;20399;-72
2022/01/13 06:26:47;;;;;;;61.92;51.65;;;;;;;0.67;48.88;103272.06;5028005;28;20491;-72
2022/01/13 06:29:14;;;;;;;59.30;46.85;;;;;;;1.18;47.35;103265.03;5028561;28;20929;-72
2022/01/13 06:31:42;;;;;;;41.72;31.85;;;;;;;1.79;46.27;103273.50;5028715;28;20912;-72
2022/01/13 06:34:10;;;;;;;39.80;31.98;;;;;;;1.51;46.21;103273.63;5029456;28;20502;-72
2022/01/13 06:36:37;;;;;;;59.38;48.75;;;;;;;2.74;43.99;103279.84;5014909;28;20864;-72
2022/01/13 06:39:04;;;;;;;46.88;41.70;;;;;;;4.13;41.17;103284.31;5032544;28;20414;-72
2022/01/13 06:41:31;;;;;;;56.03;49.92;;;;;;;5.14;39.32;103281.75;5032091;28;20506;-72
2022/01/13 06:43:58;;;;;;;62.77;53.90;;;;;;;5.72;37.89;103285.84;5014775;28;20504;-73
2022/01/13 06:46:25;;;;;;;67.22;60.20;;;;;;;6.59;36.26;103290.91;5032508;28;20406;-71
2022/01/13 06:48:54;;;;;;;38.08;33.90;;;;;;;7.61;34.21;103290.81;5032262;28;20406;-72
2022/01/13 06:51:21;;;;;;;38.67;34.13;;;;;;;8.01;33.02;103289.63;5032094;28;20501;-72
2022/01/13 06:53:47;;;;;;;31.65;27.15;;;;;;;8.78;32.08;103292.47;5032175;28;20438;-74
2022/01/13 06:56:14;;;;;;;29.87;25.63;;;;;;;9.87;30.43;103298.22;5031731;28;20773;-72
2022/01/13 06:58:44;;;;;;;29.77;26.30;;;;;;;10.48;29.07;103302.88;5031893;28;21169;-72
2022/01/13 07:01:11;;;;;;;39.85;35.53;;;;;;;10.97;27.98;103298.19;5032149;28;20422;-71
2022/01/13 07:03:39;;;;;;;30.88;27.58;;;;;;;11.05;27.84;103305.78;5031958;28;20841;-71
2022/01/13 07:06:08;;;;;;;26.92;24.20;;;;;;;12.50;25.84;103306.13;5047009;28;20509;-71
2022/01/13 07:08:35;;;;;;;30.92;27.33;;;;;;;12.55;25.43;103308.56;5031745;28;20971;-71
2022/01/13 07:11:03;;;;;;;36.05;32.25;;;;;;;13.69;23.88;103308.84;5031812;28;20781;-71
2022/01/13 07:13:31;;;;;;;24.58;21.90;;;;;;;14.00;23.57;103315.16;5032050;28;20406;-71
2022/01/13 07:16:00;;;;;;;22.25;19.83;;;;;;;14.02;23.18;103313.25;5031129;28;20761;-71
2022/01/13 07:18:28;;;;;;;23.15;20.67;;;;;;;14.10;22.74;103310.16;5032199;28;20406;-71
2022/01/13 07:20:56;;;;;;;18.85;16.95;;;;;;;13.71;23.29;103311.44;5031628;28;20505;-71
2022/01/13 07:23:24;;;;;;;18.88;16.90;;;;;;;14.94;22.12;103321.28;5031614;28;20414;-70
2022/01/13 07:25:51;;;;;;;20.92;18.80;;;;;;;14.84;21.77;103317.44;5031921;28;20490;-70
2022/01/13 07:28:18;;;;;;;28.05;25.20;;;;;;;16.50;20.66;103333.72;5031843;28;20418;-70
2022/01/13 07:30:45;;;;;;;34.47;31.08;;;;;;;16.71;19.91;103322.59;5031335;28;20432;-70
2022/01/13 07:33:12;;;;;;;25.52;22.73;;;;;;;18.40;18.93;103329.38;5031730;28;20845;-70
2022/01/13 07:35:39;;;;;;;22.60;20.30;;;;;;;17.19;18.95;103318.38;5032442;28;20501;-70
2022/01/13 07:38:05;;;;;;;31.83;28.73;;;;;;;18.14;18.46;103318.75;5031254;28;20418;-69
2022/01/13 07:40:34;;;;;;;24.67;22.30;;;;;;;18.11;18.14;103312.78;5031260;28;20891;-70
2022/01/13 07:43:02;;;;;;;22.48;20.23;;;;;;;19.64;17.42;103316.19;5046866;28;20414;-69
2022/01/13 07:45:29;;;;;;;22.63;20.23;;;;;;;20.09;16.80;103318.84;5031532;28;20421;-69
2022/01/13 07:47:55;;;;;;;23.23;20.65;;;;;;;18.47;17.75;103303.78;5031454;28;20461;-69
2022/01/13 07:50:22;;;;;;;28.10;25.17;;;;;;;19.31;16.57;103298.25;5031252;28;20521;-69
2022/01/13 07:52:49;;;;;;;20.38;18.17;;;;;;;19.93;16.34;103307.63;5031079;28;20418;-69
2022/01/13 07:55:17;;;;;;;20.38;18.27;;;;;;;20.51;16.23;103310.84;5031241;28;20421;-69
2022/01/13 07:57:45;;;;;;;18.50;16.67;;;;;;;20.53;15.66;103313.44;5030928;28;20497;-70
2022/01/13 08:00:14;;;;;;;18.70;16.85;;;;;;;19.86;16.07;103318.03;5030871;28;20414;-70
2022/01/13 08:02:41;;;;;;;17.58;15.82;;;;;;;19.28;16.44;103320.88;5046687;28;20411;-69
2022/01/13 08:05:09;;;;;;;17.90;16.10;;;;;;;19.93;15.79;103311.19;5030795;28;20416;-70
2022/01/13 08:07:36;;;;;;;18.85;16.85;;;;;;;20.46;15.49;103315.78;5031334;28;20442;-70
2022/01/13 08:10:04;;;;;;;20.20;18.23;;;;;;;21.50;15.02;103308.66;5030932;28;20429;-70
2022/01/13 08:12:31;;;;;;;18.88;16.98;;;;;;;21.45;14.65;103299.25;5030556;28;20927;-70
2022/01/13 08:15:00;;;;;;;18.13;16.23;;;;;;;20.66;15.29;103283.63;5030865;28;20414;-67
2022/01/13 08:20:12;;;;;;;18.77;16.05;;;;;;;22.02;14.04;103292.31;5030684;28;20409;-69
2022/01/13 08:22:39;;;;;;;20.90;18.75;;;;;;;23.04;13.41;103299.13;5030498;28;20418;-69
2022/01/13 08:25:06;;;;;;;25.10;20.73;;;;;;;23.64;12.85;103291.47;5030801;28;20446;-69
2022/01/13 08:27:33;;;;;;;24.50;20.52;;;;;;;23.91;12.93;103287.03;5030353;28;20938;-69
2022/01/13 08:30:02;;;;;;;19.63;17.52;;;;;;;23.39;12.79;103279.47;5030306;28;20517;-69
2022/01/13 08:32:29;;;;;;;18.33;16.33;;;;;;;22.65;13.31;103280.25;5030045;28;20423;-70
2022/01/13 08:34:55;;;;;;;17.63;15.83;;;;;;;23.40;12.55;103290.16;5030745;28;20516;-70
2022/01/13 08:37:23;;;;;;;15.65;14.15;;;;;;;22.76;13.05;103296.31;5030010;28;20497;-70
2022/01/13 08:39:50;;;;;;;16.17;14.77;;;;;;;24.12;12.37;103295.69;5029985;28;20418;-70
2022/01/13 08:42:17;;;;;;;19.97;18.13;;;;;;;23.68;12.79;103302.81;5030151;28;20505;-70
2022/01/13 08:44:44;;;;;;;20.83;18.73;;;;;;;23.57;12.75;103279.53;5030091;28;20505;-70
2022/01/13 08:47:12;;;;;;;16.10;14.32;;;;;;;22.85;13.13;103271.13;5029972;28;20500;-71
2022/01/13 08:49:39;;;;;;;16.40;14.80;;;;;;;23.48;12.45;103272.28;5029912;28;20441;-71
2022/01/13 08:52:07;;;;;;;17.90;16.02;;;;;;;24.48;11.65;103268.59;5030294;28;20437;-71
2022/01/13 08:54:34;;;;;;;17.35;15.70;;;;;;;24.12;11.86;103260.50;5029837;28;20410;-71
2022/01/13 08:57:02;;;;;;;17.30;15.70;;;;;;;24.21;11.95;103242.47;5028823;28;20454;-71
2022/01/13 08:59:31;;;;;;;16.17;14.57;;;;;;;23.83;12.16;103230.13;5029430;28;20429;-69
2022/01/13 09:01:58;;;;;;;17.50;15.82;;;;;;;24.58;11.81;103226.03;5029644;28;20796;-69
2022/01/13 09:04:26;;;;;;;18.77;16.87;;;;;;;25.23;11.30;103207.56;5029752;28;20509;-69
2022/01/13 09:06:53;;;;;;;16.95;15.20;;;;;;;23.50;11.95;103214.34;5029587;28;21020;-70
2022/01/13 09:09:20;;;;;;;16.93;15.23;;;;;;;23.15;12.40;103202.44;5029604;28;21003;-70
2022/01/13 09:11:47;;;;;;;18.15;16.45;;;;;;;22.88;12.49;103207.81;5029601;28;20415;-70
2022/01/13 09:14:15;;;;;;;20.30;18.42;;;;;;;24.29;11.75;103199.22;5029755;28;20500;-70
2022/01/13 09:16:46;;;;;;;17.63;15.93;;;;;;;23.25;12.20;103205.09;5029502;28;20917;-70
2022/01/13 09:19:17;;;;;;;23.80;21.48;;;;;;;24.80;11.59;103212.94;5029367;28;20422;-69
2022/01/13 09:21:47;;;;;;;22.02;19.80;;;;;;;26.41;10.71;103210.09;5029656;28;20496;-70
2022/01/13 09:24:16;;;;;;;17.77;16.08;;;;;;;24.95;11.18;103216.72;5029606;28;20425;-69
2022/01/13 09:26:44;;;;;;;18.33;16.63;;;;;;;26.05;11.15;103224.88;5029440;28;20414;-70
2022/01/13 09:29:12;;;;;;;18.10;16.33;;;;;;;25.22;11.19;103219.41;5029464;28;20489;-70
2022/01/13 09:31:42;;;;;;;18.93;16.93;;;;;;;25.37;11.18;103223.22;5029288;28;20522;-70
2022/01/13 09:34:10;;;;;;;21.30;19.27;;;;;;;25.15;10.92;103224.63;5029557;28;20413;-71
2022/01/13 09:36:38;;;;;;;19.17;17.38;;;;;;;25.82;10.63;103229.25;5029494;28;20421;-69
2022/01/13 09:39:08;;;;;;;19.23;17.40;;;;;;;26.06;10.92;103247.47;5029656;28;20415;-71
2022/01/13 09:41:35;;;;;;;21.25;19.25;;;;;;;26.46;10.72;103249.34;5029929;28;20450;-70
2022/01/13 09:44:05;;;;;;;22.52;20.33;;;;;;;26.85;10.60;103259.50;5029211;28;20505;-70
2022/01/13 09:46:32;;;;;;;28.23;20.33;;;;;;;27.11;10.40;103251.06;5029503;28;20437;-70
2022/01/13 09:49:03;;;;;;;25.15;22.60;;;;;;;26.47;10.71;103255.63;5029075;28;20485;-70
2022/01/13 09:51:31;;;;;;;31.45;28.45;;;;;;;25.79;11.21;103263.88;5028976;28;20525;-70
2022/01/13 09:53:58;;;;;;;32.70;29.50;;;;;;;26.25;11.09;103257.16;5029113;28;20497;-70
2022/01/13 09:56:27;;;;;;;28.60;25.60;;;;;;;26.49;10.65;103265.28;5028932;28;20410;-71
2022/01/13 09:58:54;;;;;;;30.47;27.43;;;;;;;27.57;10.13;103258.53;5028837;28;20418;-71
2022/01/13 10:01:21;;;;;;;25.23;22.75;;;;;;;28.11;10.10;103255.81;5029351;28;20785;-70
2022/01/13 10:03:48;;;;;;;23.27;20.97;;;;;;;26.06;10.55;103234.75;5011517;28;20418;-70
2022/01/13 10:06:17;;;;;;;76.88;69.22;;;;;;;25.48;10.86;103222.91;5028850;28;20505;-70
2022/01/13 10:08:47;;;;;;;27.90;25.20;;;;;;;25.87;11.19;103226.88;5029411;28;20414;-70
2022/01/13 10:11:33;;;;;;;27.57;24.80;;;;;;;27.74;10.00;103227.44;5032720;28;20954;-70
2022/01/13 10:14:16;;;;;;;28.27;25.60;;;;;;;26.77;10.50;103232.31;5032701;28;20418;-70
2022/01/13 10:16:47;;;;;;;24.85;21.25;;;;;;;26.11;10.76;103235.06;5033192;28;20510;-70
2022/01/13 10:19:31;;;;;;;25.60;21.90;;;;;;;26.80;10.75;103229.22;5032813;28;20481;-70
2022/01/13 10:22:00;;;;;;;29.33;23.77;;;;;;;24.46;12.00;103227.25;5032777;28;20406;-70
2022/01/13 10:24:29;;;;;;;27.50;22.42;;;;;;;22.12;13.66;103227.53;5032750;28;20421;-71
2022/01/13 10:27:06;;;;;;;27.00;23.02;;;;;;;22.80;13.10;103228.28;5032637;28;20407;-69
2022/01/13 10:29:44;;;;;;;31.52;27.48;;;;;;;22.07;13.75;103229.81;5032564;28;20928;-69
2022/01/13 10:32:14;;;;;;;30.08;23.33;;;;;;;21.98;14.09;103226.13;5032541;28;20497;-69
2022/01/13 10:34:43;;;;;;;24.40;21.70;;;;;;;23.84;12.32;103226.38;5032508;28;20421;-70
2022/01/13 10:37:14;;;;;;;28.85;23.75;;;;;;;22.41;13.33;103222.16;5032735;28;20414;-69
2022/01/13 10:39:50;;;;;;;21.42;19.33;;;;;;;22.44;13.13;103205.63;5032843;28;20421;-70
2022/01/13 10:43:06;;;;;;;22.73;20.33;;;;;;;23.66;12.50;103213.69;5033605;28;20418;-70
2022/01/13 10:45:34;;;;;;;24.38;20.15;;;;;;;23.15;12.75;103204.28;5032117;28;20412;-70
2022/01/13 10:48:03;;;;;;;22.43;19.90;;;;;;;23.17;12.64;103202.28;5032392;28;20410;-70
2022/01/13 10:50:33;;;;;;;27.10;19.93;;;;;;;22.43;13.10;103203.94;5032675;28;20434;-70
2022/01/13 10:53:05;;;;;;;24.02;19.67;;;;;;;23.04;13.13;103199.09;5032272;28;20967;-70
2022/01/13 10:55:39;;;;;;;26.65;19.63;;;;;;;20.70;14.58;103182.72;5032537;28;20415;-69
2022/01/13 10:58:07;;;;;;;22.52;20.08;;;;;;;20.86;14.48;103191.16;5032042;28;20414;-70
2022/01/13 11:00:37;;;;;;;21.65;19.15;;;;;;;21.06;14.66;103192.09;5031827;28;20853;-69
2022/01/13 11:03:10;;;;;;;23.87;20.97;;;;;;;21.37;13.94;103168.66;5031892;28;20446;-70
2022/01/13 11:05:40;;;;;;;21.83;19.10;;;;;;;21.77;13.56;103158.78;5032100;28;20463;-70
2022/01/13 11:08:10;;;;;;;45.20;31.90;;;;;;;21.10;14.40;103154.97;5032115;28;20422;-70
2022/01/13 11:10:40;;;;;;;24.77;22.17;;;;;;;20.35;14.76;103159.69;5031521;28;20434;-70
2022/01/13 11:13:17;;;;;;;40.07;30.20;;;;;;;20.15;15.28;103167.66;5031680;28;20545;-69
2022/01/13 11:15:49;;;;;;;29.60;25.65;;;;;;;18.29;16.73;103154.88;5031639;28;20923;-69
2022/01/13 11:18:17;;;;;;;26.65;23.02;;;;;;;17.60;17.11;103139.50;5014246;28;20418;-70
2022/01/13 11:20:45;;;;;;;35.58;29.10;;;;;;;18.03;17.27;103141.66;5031374;28;20501;-69
2022/01/13 11:23:12;;;;;;;27.10;22.73;;;;;;;19.36;16.67;103138.34;5031506;28;20418;-70
2022/01/13 11:25:39;;;;;;;40.25;36.05;;;;;;;19.38;16.51;103127.44;5031622;28;20501;-70
2022/01/13 11:28:10;;;;;;;33.83;30.17;;;;;;;16.67;17.48;103105.13;5031290;28;20453;-70
2022/01/13 11:30:37;;;;;;;46.80;40.78;;;;;;;16.41;17.71;103107.81;5031284;28;20986;-69
2022/01/13 11:33:04;;;;;;;43.22;38.63;;;;;;;16.60;17.70;103109.19;5031563;28;20931;-70
2022/01/13 11:35:34;;;;;;;42.50;38.00;;;;;;;15.34;18.63;103113.19;5031251;28;20437;-71
2022/01/13 11:38:03;;;;;;;30.73;27.50;;;;;;;15.38;18.62;103104.00;5031183;28;20804;-70